createdAt,value
2022-08-30T00:00:56.297Z,95795
2022-08-30T00:01:58.498Z,95798.2
2022-08-30T00:03:01.721Z,95795.9
2022-08-30T00:04:04.849Z,95793.6
2022-08-30T00:05:07.391Z,95792.8
2022-08-30T00:06:09.590Z,95794
2022-08-30T00:07:12.070Z,95793.2
2022-08-30T00:08:15.216Z,95792.3
2022-08-30T00:09:17.694Z,95797.2
2022-08-30T00:10:19.891Z,95789.1
2022-08-30T00:11:22.372Z,95786.7
2022-08-30T00:12:24.840Z,95783.7
2022-08-30T00:13:27.316Z,95788.2
2022-08-30T00:14:29.782Z,95785.2
2022-08-30T00:15:32.298Z,95790.6
2022-08-30T00:16:34.245Z,95785.9
2022-08-30T00:17:36.173Z,95787.8
2022-08-30T00:18:38.762Z,95787.1
2022-08-30T00:19:41.249Z,95785.3
2022-08-30T00:20:43.716Z,95792
2022-08-30T00:21:45.917Z,95788.9
2022-08-30T00:22:48.396Z,95793.9
2022-08-30T00:23:50.601Z,95795.5
2022-08-30T00:24:52.776Z,95791
2022-08-30T00:25:54.713Z,95790.8
2022-08-30T00:26:57.350Z,95787.9
2022-08-30T00:27:59.555Z,95789.7
2022-08-30T00:29:01.774Z,95788.4
2022-08-30T00:30:03.980Z,95787
2022-08-30T00:31:06.600Z,95788
2022-08-30T00:32:09.137Z,95791.3
2022-08-30T00:33:11.629Z,95791.1
2022-08-30T00:34:14.090Z,95793.2
2022-08-30T00:35:16.572Z,95791.6
2022-08-30T00:36:19.039Z,95787.6
2022-08-30T00:37:21.521Z,95790.8
2022-08-30T00:38:23.986Z,95788.7
2022-08-30T00:39:25.915Z,95789.2
2022-08-30T00:40:29.405Z,95787.8
2022-08-30T00:41:31.685Z,95785.7
2022-08-30T00:42:33.873Z,95785.7
2022-08-30T00:43:37.831Z,95785.2
2022-08-30T00:44:40.309Z,95784.2
2022-08-30T00:45:42.237Z,95783.2
2022-08-30T00:46:45.122Z,95783.1
2022-08-30T00:47:47.316Z,95781.4
2022-08-30T00:48:49.778Z,95783.9
2022-08-30T00:49:52.259Z,95785.7
2022-08-30T00:50:54.727Z,95780.7
2022-08-30T00:51:56.964Z,95778.3
2022-08-30T00:52:59.429Z,95779.6
2022-08-30T00:54:01.608Z,95782
2022-08-30T00:55:04.083Z,95780.6
2022-08-30T00:56:06.558Z,95778.3
2022-08-30T00:57:08.761Z,95779.9
2022-08-30T00:58:11.247Z,95779.7
2022-08-30T00:59:13.781Z,95779.6
2022-08-30T01:00:16.259Z,95773.6
2022-08-30T01:01:19.002Z,95779.6
2022-08-30T01:02:21.843Z,95774.8
2022-08-30T01:03:24.120Z,95780.8
2022-08-30T01:04:26.591Z,95779.1
2022-08-30T01:05:28.786Z,95777.6
2022-08-30T01:07:36.246Z,95776.1
2022-08-30T01:08:38.443Z,95776
2022-08-30T01:09:40.922Z,95774.3
2022-08-30T01:10:43.459Z,95774.5
2022-08-30T01:11:45.983Z,95773.1
2022-08-30T01:12:48.482Z,95772.6
2022-08-30T01:13:50.698Z,95773.8
2022-08-30T01:14:54.155Z,95774.5
2022-08-30T01:15:57.650Z,95772.5
2022-08-30T01:17:00.251Z,95778.3
2022-08-30T01:18:02.759Z,95776.9
2022-08-30T01:20:14.468Z,95770.4
2022-08-30T01:21:16.688Z,95771.8
2022-08-30T01:22:18.618Z,95772.2
2022-08-30T01:23:23.782Z,95766.8
2022-08-30T01:24:26.250Z,95773.3
2022-08-30T01:25:28.718Z,95773.1
2022-08-30T01:26:31.213Z,95773.7
2022-08-30T01:27:33.155Z,95773.2
2022-08-30T01:28:35.684Z,95772.1
2022-08-30T01:29:38.775Z,95771.6
2022-08-30T01:30:41.202Z,95773.3
2022-08-30T01:31:43.741Z,95772.8
2022-08-30T01:32:46.239Z,95776.8
2022-08-30T01:33:48.751Z,95774.6
2022-08-30T01:34:51.222Z,95774.4
2022-08-30T01:35:53.703Z,95774.3
2022-08-30T01:36:55.900Z,95774.9
2022-08-30T01:37:58.107Z,95771.2
2022-08-30T01:39:00.295Z,95774.5
2022-08-30T01:40:02.777Z,95775.9
2022-08-30T01:41:05.124Z,95779.9
2022-08-30T01:42:07.608Z,95780.4
2022-08-30T01:43:10.345Z,95775.1
2022-08-30T01:44:12.820Z,95779.4
2022-08-30T01:45:15.288Z,95784.4
2022-08-30T01:46:17.991Z,95782.8
2022-08-30T01:47:20.616Z,95782.7
2022-08-30T01:49:29.204Z,95781.3
2022-08-30T01:50:31.712Z,95777.5
2022-08-30T01:51:34.200Z,95777.2
2022-08-30T01:52:36.686Z,95775.3
2022-08-30T01:53:38.902Z,95775.5
2022-08-30T01:54:41.097Z,95771.8
2022-08-30T01:55:43.306Z,95770.8
2022-08-30T01:56:45.785Z,95766.7
2022-08-30T01:57:48.248Z,95765.1
2022-08-30T01:58:50.152Z,95768.5
2022-08-30T01:59:52.625Z,95766
2022-08-30T02:00:55.417Z,95770.7
2022-08-30T02:01:57.982Z,95770.8
2022-08-30T02:03:00.462Z,95774.7
2022-08-30T02:04:02.933Z,95777.6
2022-08-30T02:05:05.574Z,95776.4
2022-08-30T02:06:08.039Z,95779.8
2022-08-30T02:07:10.248Z,95775
2022-08-30T02:08:12.731Z,95772.6
2022-08-30T02:09:14.938Z,95777.8
2022-08-30T02:10:17.234Z,95774.9
2022-08-30T02:11:19.735Z,95772.1
2022-08-30T02:12:22.238Z,95777.9
2022-08-30T02:13:24.720Z,95774.5
2022-08-30T02:14:26.627Z,95772.7
2022-08-30T02:15:28.846Z,95771.3
2022-08-30T02:16:31.277Z,95771.5
2022-08-30T02:17:33.898Z,95772.2
2022-08-30T02:18:36.463Z,95774.4
2022-08-30T02:19:38.405Z,95774.2
2022-08-30T02:20:40.597Z,95775.2
2022-08-30T02:21:43.079Z,95774.2
2022-08-30T02:23:49.978Z,95764.1
2022-08-30T02:24:52.530Z,95768.1
2022-08-30T02:25:54.998Z,95762.5
2022-08-30T02:26:57.466Z,95765.2
2022-08-30T02:27:59.777Z,95766.4
2022-08-30T02:29:02.021Z,95766.6
2022-08-30T02:30:04.207Z,95761.9
2022-08-30T02:31:06.671Z,95763.1
2022-08-30T02:32:09.278Z,95763.1
2022-08-30T02:33:11.774Z,95763.4
2022-08-30T02:34:13.982Z,95757.4
2022-08-30T02:35:16.475Z,95758.6
2022-08-30T02:36:18.681Z,95757.6
2022-08-30T02:37:20.967Z,95762.7
2022-08-30T02:38:23.460Z,95757.8
2022-08-30T02:39:25.946Z,95760.5
2022-08-30T02:40:28.475Z,95761.4
2022-08-30T02:41:31.080Z,95765.8
2022-08-30T02:42:33.545Z,95765.3
2022-08-30T02:43:35.745Z,95766.6
2022-08-30T02:44:37.953Z,95762.4
2022-08-30T02:45:40.420Z,95768.8
2022-08-30T02:46:43.023Z,95774.4
2022-08-30T02:48:49.675Z,95773.2
2022-08-30T02:49:51.850Z,95775.8
2022-08-30T02:50:54.320Z,95775.2
2022-08-30T02:51:56.499Z,95773.2
2022-08-30T02:52:58.964Z,95775.2
2022-08-30T02:54:01.444Z,95781.5
2022-08-30T02:55:03.641Z,95778.1
2022-08-30T02:56:06.134Z,95781.7
2022-08-30T02:58:13.627Z,95779.4
2022-08-30T02:59:15.543Z,95785.7
2022-08-30T03:00:18.010Z,95779.3
2022-08-30T03:01:20.860Z,95776.5
2022-08-30T03:02:22.838Z,95781.1
2022-08-30T03:03:25.275Z,95782.4
2022-08-30T03:04:28.505Z,95779.4
2022-08-30T03:05:30.728Z,95779
2022-08-30T03:06:32.923Z,95782.4
2022-08-30T03:07:35.407Z,95778.5
2022-08-30T03:08:37.888Z,95779.3
2022-08-30T03:09:40.349Z,95781.3
2022-08-30T03:10:42.521Z,95786
2022-08-30T03:11:44.998Z,95784.1
2022-08-30T03:12:47.471Z,95785.8
2022-08-30T03:13:49.758Z,95785.8
2022-08-30T03:14:52.246Z,95784.7
2022-08-30T03:15:54.449Z,95782.5
2022-08-30T03:16:57.207Z,95784
2022-08-30T03:17:59.773Z,95782.9
2022-08-30T03:19:02.247Z,95782.6
2022-08-30T03:20:04.780Z,95779.6
2022-08-30T03:21:07.276Z,95780.8
2022-08-30T03:22:09.763Z,95780
2022-08-30T03:24:17.241Z,95778.3
2022-08-30T03:25:19.714Z,95781.4
2022-08-30T03:26:22.187Z,95776.9
2022-08-30T03:27:24.393Z,95777.1
2022-08-30T03:28:26.857Z,95776.7
2022-08-30T03:29:29.055Z,95774.9
2022-08-30T03:30:31.537Z,95775.8
2022-08-30T03:32:39.016Z,95776.6
2022-08-30T03:33:41.234Z,95771.1
2022-08-30T03:34:43.707Z,95776
2022-08-30T03:35:46.257Z,95772.8
2022-08-30T03:36:48.492Z,95776.3
2022-08-30T03:38:55.967Z,95776.1
2022-08-30T03:39:59.178Z,95776.3
2022-08-30T03:41:02.520Z,95778.6
2022-08-30T03:42:06.225Z,95773
2022-08-30T03:43:08.484Z,95776.8
2022-08-30T03:44:11.138Z,95774.5
2022-08-30T03:45:15.471Z,95775.7
2022-08-30T03:47:23.657Z,95772.6
2022-08-30T03:48:26.206Z,95775
2022-08-30T03:49:28.736Z,95773.1
2022-08-30T03:50:31.222Z,95771.4
2022-08-30T03:51:33.431Z,95768.8
2022-08-30T03:52:35.952Z,95773.9
2022-08-30T03:53:38.159Z,95774.2
2022-08-30T03:54:40.390Z,95774.4
2022-08-30T03:55:42.873Z,95772.8
2022-08-30T03:56:45.353Z,95772.1
2022-08-30T03:57:47.551Z,95773.8
2022-08-30T03:58:49.507Z,95775.8
2022-08-30T03:59:53.650Z,95774.7
2022-08-30T04:00:56.183Z,95772.7
2022-08-30T04:01:58.399Z,95774.2
2022-08-30T04:03:01.038Z,95773.5
2022-08-30T04:04:05.033Z,95775.1
2022-08-30T04:05:07.497Z,95775.7
2022-08-30T04:06:09.972Z,95775.2
2022-08-30T04:07:12.443Z,95779.5
2022-08-30T04:08:14.914Z,95780.6
2022-08-30T04:09:17.398Z,95781.3
2022-08-30T04:10:19.039Z,95788.2
2022-08-30T04:11:21.507Z,95786.6
2022-08-30T04:12:24.435Z,95789.8
2022-08-30T04:13:26.614Z,95790
2022-08-30T04:14:29.095Z,95794.1
2022-08-30T04:15:31.290Z,95794.7
2022-08-30T04:16:34.062Z,95792.4
2022-08-30T04:17:36.399Z,95795.9
2022-08-30T04:18:38.872Z,95796.1
2022-08-30T04:19:41.350Z,95799.7
2022-08-30T04:20:43.828Z,95799.7
2022-08-30T04:21:46.306Z,95801.1
2022-08-30T04:22:48.779Z,95801.5
2022-08-30T04:23:51.245Z,95803.1
2022-08-30T04:24:53.444Z,95803
2022-08-30T04:25:55.927Z,95803.9
2022-08-30T04:26:58.394Z,95812.2
2022-08-30T04:28:00.874Z,95808.4
2022-08-30T04:29:03.356Z,95810
2022-08-30T04:30:05.867Z,95808.1
2022-08-30T04:32:13.346Z,95808.6
2022-08-30T04:33:16.494Z,95808
2022-08-30T04:34:19.346Z,95810
2022-08-30T04:35:21.830Z,95808.9
2022-08-30T04:36:24.305Z,95810.2
2022-08-30T04:37:28.472Z,95810.7
2022-08-30T04:38:32.034Z,95807.5
2022-08-30T04:39:34.219Z,95807.1
2022-08-30T04:40:36.966Z,95810.5
2022-08-30T04:41:39.545Z,95816
2022-08-30T04:42:41.735Z,95812.9
2022-08-30T04:43:43.951Z,95809.4
2022-08-30T04:44:46.411Z,95814.3
2022-08-30T04:45:48.918Z,95815.1
2022-08-30T04:46:51.472Z,95817.3
2022-08-30T04:48:58.680Z,95816.3
2022-08-30T04:50:00.868Z,95824.3
2022-08-30T04:51:03.332Z,95824.6
2022-08-30T04:52:05.535Z,95823.2
2022-08-30T04:53:07.726Z,95819.8
2022-08-30T04:54:10.210Z,95826.7
2022-08-30T04:56:18.673Z,95827
2022-08-30T04:57:21.146Z,95828.5
2022-08-30T04:58:23.610Z,95831.7
2022-08-30T04:59:25.256Z,95830.3
2022-08-30T05:00:27.728Z,95832.9
2022-08-30T05:01:30.774Z,95830.1
2022-08-30T05:02:33.251Z,95832.6
2022-08-30T05:03:35.576Z,95830.9
2022-08-30T05:04:38.045Z,95834.4
2022-08-30T05:05:39.974Z,95837.4
2022-08-30T05:06:42.441Z,95843
2022-08-30T05:07:44.913Z,95841.9
2022-08-30T05:08:47.965Z,95845
2022-08-30T05:09:49.880Z,95845.6
2022-08-30T05:10:52.079Z,95846.1
2022-08-30T05:11:54.288Z,95850.2
2022-08-30T05:12:56.761Z,95849.1
2022-08-30T05:13:58.944Z,95847.1
2022-08-30T05:15:01.142Z,95850.9
2022-08-30T05:16:03.596Z,95851
2022-08-30T05:17:06.927Z,95851.8
2022-08-30T05:19:14.405Z,95852
2022-08-30T05:20:16.879Z,95850.4
2022-08-30T05:21:19.357Z,95850.1
2022-08-30T05:22:20.995Z,95850.7
2022-08-30T05:23:23.193Z,95851.8
2022-08-30T05:24:25.670Z,95849.6
2022-08-30T05:25:28.148Z,95845.5
2022-08-30T05:26:30.355Z,95840.1
2022-08-30T05:27:32.821Z,95842.7
2022-08-30T05:28:39.015Z,95841.8
2022-08-30T05:29:41.548Z,95837.6
2022-08-30T05:30:43.177Z,95842.1
2022-08-30T05:31:45.934Z,95840.5
2022-08-30T05:32:48.233Z,95839.1
2022-08-30T05:33:50.449Z,95841.9
2022-08-30T05:34:52.940Z,95839.1
2022-08-30T05:35:55.416Z,95837.2
2022-08-30T05:36:57.896Z,95835
2022-08-30T05:37:59.822Z,95835.5
2022-08-30T05:41:12.932Z,95834.5
2022-08-30T05:43:20.140Z,95832.2
2022-08-30T05:44:27.436Z,95835.8
2022-08-30T05:45:29.915Z,95839.3
2022-08-30T05:47:34.255Z,95836.5
2022-08-30T05:48:36.456Z,95839.9
2022-08-30T05:49:38.653Z,95838.6
2022-08-30T05:50:41.364Z,95836
2022-08-30T05:51:44.937Z,95836
2022-08-30T05:52:47.405Z,95835.3
2022-08-30T05:53:49.889Z,95836.2
2022-08-30T05:54:52.108Z,95839.1
2022-08-30T05:55:54.588Z,95839.6
2022-08-30T05:56:57.060Z,95839
2022-08-30T05:57:59.000Z,95839
2022-08-30T05:59:00.921Z,95839
2022-08-30T06:00:03.164Z,95840.9
2022-08-30T06:01:05.109Z,95842.6
2022-08-30T06:02:07.687Z,95844
2022-08-30T06:03:10.558Z,95844.1
2022-08-30T06:04:13.160Z,95843
2022-08-30T06:05:16.608Z,95842.6
2022-08-30T06:06:18.818Z,95843.9
2022-08-30T06:08:26.308Z,95843.4
2022-08-30T06:09:28.512Z,95847.3
2022-08-30T06:10:30.986Z,95851.8
2022-08-30T06:11:33.185Z,95848.9
2022-08-30T06:12:35.653Z,95850.5
2022-08-30T06:13:37.853Z,95848.4
2022-08-30T06:14:40.331Z,95849.8
2022-08-30T06:15:42.655Z,95851.5
2022-08-30T06:16:45.206Z,95847.9
2022-08-30T06:17:46.883Z,95847.7
2022-08-30T06:18:49.096Z,95851.3
2022-08-30T06:19:51.297Z,95847.8
2022-08-30T06:20:53.223Z,95849.1
2022-08-30T06:21:55.429Z,95850
2022-08-30T06:22:57.911Z,95846.6
2022-08-30T06:24:00.124Z,95845.5
2022-08-30T06:25:02.636Z,95846.1
2022-08-30T06:26:05.118Z,95845.7
2022-08-30T06:27:07.635Z,95842.3
2022-08-30T06:28:10.364Z,95844.1
2022-08-30T06:29:12.602Z,95843.8
2022-08-30T06:30:14.795Z,95841.2
2022-08-30T06:31:21.785Z,95847.3
2022-08-30T06:32:24.172Z,95843.5
2022-08-30T06:33:26.103Z,95842.5
2022-08-30T06:34:28.586Z,95840.5
2022-08-30T06:36:36.064Z,95843.1
2022-08-30T06:37:38.259Z,95841.4
2022-08-30T06:38:40.751Z,95847.1
2022-08-30T06:39:43.222Z,95842.2
2022-08-30T06:40:46.067Z,95842.3
2022-08-30T06:41:48.645Z,95844.1
2022-08-30T06:42:51.133Z,95848
2022-08-30T06:43:53.607Z,95847.7
2022-08-30T06:44:55.800Z,95851
2022-08-30T06:45:58.004Z,95845.3
2022-08-30T06:47:00.870Z,95847.9
2022-08-30T06:48:03.262Z,95847.4
2022-08-30T06:49:05.459Z,95851.2
2022-08-30T06:51:14.544Z,95850.8
2022-08-30T06:53:24.002Z,95853.5
2022-08-30T06:54:27.854Z,95851.8
2022-08-30T06:55:30.052Z,95846.7
2022-08-30T06:56:32.464Z,95850
2022-08-30T06:57:34.667Z,95848.4
2022-08-30T06:58:36.888Z,95846.6
2022-08-30T06:59:39.354Z,95849.9
2022-08-30T07:00:41.872Z,95848.8
2022-08-30T07:01:45.196Z,95848.4
2022-08-30T07:02:47.979Z,95849.1
2022-08-30T07:03:50.320Z,95845.8
2022-08-30T07:04:52.813Z,95849.6
2022-08-30T07:05:55.299Z,95843.7
2022-08-30T07:06:57.500Z,95845.4
2022-08-30T07:07:59.973Z,95846.7
2022-08-30T07:09:04.708Z,95844.8
2022-08-30T07:10:06.905Z,95845.5
2022-08-30T07:11:09.142Z,95846.1
2022-08-30T07:12:11.369Z,95846.7
2022-08-30T07:13:14.089Z,95842.1
2022-08-30T07:14:16.567Z,95844.4
2022-08-30T07:15:18.771Z,95843.1
2022-08-30T07:16:21.307Z,95844.6
2022-08-30T07:17:23.919Z,95849.3
2022-08-30T07:18:26.109Z,95847.4
2022-08-30T07:19:28.592Z,95849.2
2022-08-30T07:21:36.072Z,95845.8
2022-08-30T07:22:38.556Z,95843.7
2022-08-30T07:23:40.772Z,95840.4
2022-08-30T07:24:42.982Z,95839.7
2022-08-30T07:25:45.196Z,95840.8
2022-08-30T07:26:47.682Z,95834.4
2022-08-30T07:27:49.592Z,95837.1
2022-08-30T07:29:57.068Z,95842
2022-08-30T07:30:59.780Z,95846.3
2022-08-30T07:32:02.076Z,95840.2
2022-08-30T07:33:04.321Z,95840.4
2022-08-30T07:34:06.516Z,95841.2
2022-08-30T07:35:08.730Z,95837.8
2022-08-30T07:36:10.922Z,95837.1
2022-08-30T07:38:18.122Z,95832.6
2022-08-30T07:39:20.621Z,95836.1
2022-08-30T07:40:23.613Z,95836.4
2022-08-30T07:41:25.502Z,95835.8
2022-08-30T07:42:27.976Z,95838.2
2022-08-30T07:43:30.451Z,95835.8
2022-08-30T07:44:32.349Z,95840.3
2022-08-30T07:45:36.855Z,95838.7
2022-08-30T07:46:39.785Z,95838.4
2022-08-30T07:47:42.422Z,95836.8
2022-08-30T07:48:45.788Z,95833.8
2022-08-30T07:49:49.131Z,95836.8
2022-08-30T07:51:56.309Z,95833.6
2022-08-30T07:52:58.783Z,95831.4
2022-08-30T07:54:00.971Z,95832.7
2022-08-30T07:55:02.911Z,95835
2022-08-30T07:56:06.087Z,95826.8
2022-08-30T07:57:08.059Z,95829.5
2022-08-30T07:58:10.250Z,95834
2022-08-30T07:59:12.745Z,95834.5
2022-08-30T08:00:14.962Z,95836.9
2022-08-30T08:01:17.808Z,95838.2
2022-08-30T08:02:19.863Z,95840
2022-08-30T08:03:22.472Z,95838.2
2022-08-30T08:04:24.675Z,95842
2022-08-30T08:05:27.170Z,95837.5
2022-08-30T08:07:34.656Z,95840.7
2022-08-30T08:08:37.150Z,95840.8
2022-08-30T08:09:39.363Z,95841.5
2022-08-30T08:10:41.572Z,95845.6
2022-08-30T08:11:43.782Z,95843
2022-08-30T08:12:46.546Z,95844.9
2022-08-30T08:14:54.081Z,95841.8
2022-08-30T08:15:56.725Z,95841.4
2022-08-30T08:16:59.058Z,95840.5
2022-08-30T08:18:01.262Z,95843.1
2022-08-30T08:19:03.744Z,95840.7
2022-08-30T08:20:05.947Z,95840.7
2022-08-30T08:21:08.440Z,95841.5
2022-08-30T08:23:15.650Z,95844.8
2022-08-30T08:24:17.853Z,95843.3
2022-08-30T08:25:20.357Z,95841.4
2022-08-30T08:26:22.590Z,95840.6
2022-08-30T08:27:24.854Z,95846.6
2022-08-30T08:28:27.336Z,95845.8
2022-08-30T08:29:29.815Z,95845.3
2022-08-30T08:30:31.755Z,95848.4
2022-08-30T08:31:35.332Z,95844.7
2022-08-30T08:32:37.713Z,95847.4
2022-08-30T08:33:40.415Z,95844
2022-08-30T08:34:42.415Z,95847.4
2022-08-30T08:35:44.888Z,95845.3
2022-08-30T08:36:47.384Z,95849.3
2022-08-30T08:37:49.609Z,95853.2
2022-08-30T08:38:52.116Z,95850.9
2022-08-30T08:39:54.609Z,95851.7
2022-08-30T08:40:56.930Z,95856.4
2022-08-30T08:41:59.499Z,95852.5
2022-08-30T08:43:02.118Z,95856.4
2022-08-30T08:44:04.698Z,95856.3
2022-08-30T08:46:13.393Z,95857.4
2022-08-30T08:47:16.889Z,95857.6
2022-08-30T08:48:20.837Z,95854
2022-08-30T08:49:24.081Z,95855.1
2022-08-30T08:50:26.297Z,95851.5
2022-08-30T08:51:30.361Z,95854.8
2022-08-30T08:52:32.870Z,95850.5
2022-08-30T08:54:40.382Z,95848.4
2022-08-30T08:55:42.849Z,95849.3
2022-08-30T08:56:45.132Z,95846
2022-08-30T08:57:47.333Z,95841.1
2022-08-30T08:58:49.816Z,95846.1
2022-08-30T08:59:52.316Z,95842.5
2022-08-30T09:00:54.795Z,95844.3
2022-08-30T09:03:01.723Z,95844.9
2022-08-30T09:04:04.201Z,95840.6
2022-08-30T09:05:06.685Z,95846.3
2022-08-30T09:06:09.001Z,95844.4
2022-08-30T09:07:10.981Z,95846
2022-08-30T09:08:13.003Z,95850.2
2022-08-30T09:09:15.227Z,95846.4
2022-08-30T09:12:27.752Z,95841.7
2022-08-30T09:13:31.590Z,95840.8
2022-08-30T09:14:35.755Z,95839.9
2022-08-30T09:15:39.330Z,95841
2022-08-30T09:16:42.030Z,95837.4
2022-08-30T09:17:44.873Z,95834.6
2022-08-30T09:19:54.518Z,95834.1
2022-08-30T09:20:57.309Z,95836.2
2022-08-30T09:22:00.247Z,95831
2022-08-30T09:23:02.559Z,95837.7
2022-08-30T09:24:05.234Z,95833.6
2022-08-30T09:25:07.480Z,95835.6
2022-08-30T09:26:09.962Z,95832.5
2022-08-30T09:27:12.996Z,95833.2
2022-08-30T09:28:15.267Z,95832.1
2022-08-30T09:29:18.148Z,95830
2022-08-30T09:30:20.640Z,95832.8
2022-08-30T09:31:25.107Z,95828.2
2022-08-30T09:32:27.432Z,95829.1
2022-08-30T09:33:29.479Z,95829.5
2022-08-30T09:34:31.939Z,95826
2022-08-30T09:35:34.690Z,95831.4
2022-08-30T09:36:36.593Z,95831.1
2022-08-30T09:37:39.069Z,95827.1
2022-08-30T09:38:43.344Z,95825.7
2022-08-30T09:39:46.016Z,95819.7
2022-08-30T09:40:48.570Z,95819.9
2022-08-30T09:41:51.100Z,95820.8
2022-08-30T09:42:53.321Z,95810.1
2022-08-30T09:43:55.798Z,95816.1
2022-08-30T09:44:58.268Z,95818.6
2022-08-30T09:46:03.476Z,95815.5
2022-08-30T09:47:05.519Z,95818.8
2022-08-30T09:48:08.245Z,95818.5
2022-08-30T09:49:11.782Z,95819.2
2022-08-30T09:50:14.658Z,95816.2
2022-08-30T09:51:17.157Z,95812
2022-08-30T09:52:19.885Z,95811.6
2022-08-30T09:55:32.341Z,95802.9
2022-08-30T09:56:34.816Z,95798.5
2022-08-30T09:57:35.903Z,95805.8
2022-08-30T09:58:38.631Z,95806.4
2022-08-30T09:59:40.843Z,95802.1
2022-08-30T10:00:43.050Z,95799.1
2022-08-30T10:01:45.650Z,95799.6
2022-08-30T10:02:47.626Z,95798.6
2022-08-30T10:03:51.386Z,95801.6
2022-08-30T10:04:53.900Z,95796.2
2022-08-30T10:05:59.904Z,95799
2022-08-30T10:07:02.382Z,95790.9
2022-08-30T10:08:04.859Z,95791.8
2022-08-30T10:09:08.051Z,95795.2
2022-08-30T10:10:10.271Z,95797.9
2022-08-30T10:11:12.496Z,95795
2022-08-30T10:12:16.608Z,95791.9
2022-08-30T10:13:20.325Z,95789.4
2022-08-30T10:14:23.387Z,95791.6
2022-08-30T10:15:31.635Z,95791.5
2022-08-30T10:16:34.267Z,95786
2022-08-30T10:18:41.850Z,95784.8
2022-08-30T10:19:44.350Z,95788
2022-08-30T10:21:53.726Z,95786.4
2022-08-30T10:24:01.031Z,95781.5
2022-08-30T10:25:02.967Z,95782.3
2022-08-30T10:26:05.582Z,95782.2
2022-08-30T10:27:08.072Z,95781.2
2022-08-30T10:28:10.053Z,95777.8
2022-08-30T10:29:12.783Z,95781.5
2022-08-30T10:30:15.261Z,95777.6
2022-08-30T10:31:17.879Z,95777
2022-08-30T10:32:19.784Z,95773.5
2022-08-30T10:34:28.121Z,95771.8
2022-08-30T10:36:35.030Z,95775.3
2022-08-30T10:37:37.634Z,95772.3
2022-08-30T10:38:40.130Z,95774.1
2022-08-30T10:39:43.214Z,95772.2
2022-08-30T10:40:46.183Z,95774.5
2022-08-30T10:41:53.230Z,95770.7
2022-08-30T10:42:56.145Z,95771
2022-08-30T10:44:00.839Z,95772.2
2022-08-30T10:45:03.609Z,95766.4
2022-08-30T10:46:07.044Z,95762
2022-08-30T10:47:11.517Z,95766.9
2022-08-30T10:48:20.462Z,95767.3
2022-08-30T10:49:24.591Z,95762.9
2022-08-30T10:50:26.785Z,95768.1
2022-08-30T10:51:28.987Z,95767.8
2022-08-30T10:52:31.455Z,95764.1
2022-08-30T10:53:34.115Z,95765
2022-08-30T10:54:36.760Z,95761.2
2022-08-30T10:56:44.446Z,95764.5
2022-08-30T10:57:46.940Z,95756.2
2022-08-30T10:58:51.885Z,95764.1
2022-08-30T10:59:54.996Z,95762
2022-08-30T11:00:57.893Z,95761.1
2022-08-30T11:02:00.077Z,95763.8
2022-08-30T11:03:02.575Z,95758.6
2022-08-30T11:04:04.822Z,95760
2022-08-30T11:05:07.326Z,95758
2022-08-30T11:06:10.016Z,95758
2022-08-30T11:07:12.261Z,95754.9
2022-08-30T11:09:19.468Z,95750.2
2022-08-30T11:10:21.705Z,95748.3
2022-08-30T11:11:24.211Z,95749.1
2022-08-30T11:12:27.958Z,95748.2
2022-08-30T11:13:30.429Z,95749.7
2022-08-30T11:14:32.641Z,95750.8
2022-08-30T11:15:37.191Z,95750.6
2022-08-30T11:16:39.695Z,95750.5
2022-08-30T11:17:41.614Z,95748.2
2022-08-30T11:19:53.695Z,95750
2022-08-30T11:20:57.103Z,95751.3
2022-08-30T11:21:59.726Z,95751.4
2022-08-30T11:23:02.209Z,95748.8
2022-08-30T11:25:11.785Z,95743.7
2022-08-30T11:27:19.899Z,95741.1
2022-08-30T11:28:24.162Z,95742.3
2022-08-30T11:30:38.882Z,95738
2022-08-30T11:31:42.712Z,95735.2
2022-08-30T11:32:52.321Z,95738
2022-08-30T11:33:55.798Z,95739.8
2022-08-30T11:35:01.352Z,95742
2022-08-30T11:36:04.598Z,95738.2
2022-08-30T11:38:13.746Z,95737.8
2022-08-30T11:39:15.777Z,95739.2
2022-08-30T11:40:20.588Z,95741.6
2022-08-30T11:41:23.065Z,95742.3
2022-08-30T11:42:31.173Z,95742.1
2022-08-30T11:43:33.810Z,95740.5
2022-08-30T11:44:36.192Z,95744.6
2022-08-30T11:45:39.333Z,95744.4
2022-08-30T11:47:47.732Z,95746.7
2022-08-30T11:49:55.493Z,95743.5
2022-08-30T11:50:57.710Z,95744.6
2022-08-30T11:53:05.485Z,95743.9
2022-08-30T11:54:08.127Z,95747.3
2022-08-30T11:55:15.274Z,95745.4
2022-08-30T11:57:23.581Z,95739.8
2022-08-30T11:59:32.182Z,95744.1
2022-08-30T12:00:36.640Z,95738.5
2022-08-30T12:02:45.166Z,95738
2022-08-30T12:03:48.526Z,95744.8
2022-08-30T12:04:52.181Z,95743.8
2022-08-30T12:05:54.397Z,95739.1
2022-08-30T12:07:01.376Z,95738.2
2022-08-30T12:08:03.990Z,95740.9
2022-08-30T12:10:10.896Z,95741.1
2022-08-30T12:11:13.838Z,95743.4
2022-08-30T12:12:16.646Z,95743
2022-08-30T12:13:20.684Z,95744.3
2022-08-30T12:14:23.166Z,95740.3
2022-08-30T12:15:26.059Z,95736.3
2022-08-30T12:16:29.461Z,95738.8
2022-08-30T12:17:32.074Z,95737.9
2022-08-30T12:18:35.416Z,95732.9
2022-08-30T12:20:43.167Z,95736.5
2022-08-30T12:21:47.279Z,95737.1
2022-08-30T12:22:49.755Z,95731.2
2022-08-30T12:23:52.357Z,95729.9
2022-08-30T12:24:55.927Z,95728.9
2022-08-30T12:25:58.939Z,95729.5
2022-08-30T12:27:01.166Z,95725
2022-08-30T12:28:04.585Z,95727.9
2022-08-30T12:29:07.070Z,95727.4
2022-08-30T12:30:10.471Z,95725.1
2022-08-30T12:31:17.152Z,95729.7
2022-08-30T12:32:21.386Z,95723.7
2022-08-30T12:34:28.625Z,95721
2022-08-30T12:35:32.499Z,95722.6
2022-08-30T12:36:35.617Z,95718.5
2022-08-30T12:38:44.270Z,95721.4
2022-08-30T12:40:52.089Z,95720.3
2022-08-30T12:41:54.288Z,95724.8
2022-08-30T12:42:57.747Z,95723.3
2022-08-30T12:44:00.583Z,95724.5
2022-08-30T12:45:08.087Z,95718.4
2022-08-30T12:47:16.395Z,95716.6
2022-08-30T12:49:23.657Z,95715.3
2022-08-30T12:50:26.032Z,95718.4
2022-08-30T12:51:28.225Z,95718.5
2022-08-30T12:52:30.705Z,95720.9
2022-08-30T12:53:33.170Z,95719.5
2022-08-30T12:54:35.315Z,95718.4
2022-08-30T12:55:37.818Z,95715
2022-08-30T12:57:46.670Z,95716
2022-08-30T12:58:49.299Z,95714.5
2022-08-30T13:02:03.000Z,95707.1
2022-08-30T13:04:11.224Z,95706.9
2022-08-30T13:05:15.099Z,95704.2
2022-08-30T13:06:18.579Z,95705.4
2022-08-30T13:07:21.213Z,95704.2
2022-08-30T13:08:24.393Z,95704.8
2022-08-30T13:10:34.213Z,95698.3
2022-08-30T13:11:36.691Z,95699.6
2022-08-30T13:12:39.005Z,95698.3
2022-08-30T13:13:41.210Z,95696.6
2022-08-30T13:14:47.628Z,95692.5
2022-08-30T13:15:49.831Z,95691
2022-08-30T13:16:53.000Z,95691.6
2022-08-30T13:17:55.287Z,95688.4
2022-08-30T13:18:57.475Z,95690.3
2022-08-30T13:19:59.676Z,95688.8
2022-08-30T13:21:03.075Z,95687.9
2022-08-30T13:22:05.283Z,95688.1
2022-08-30T13:23:06.908Z,95684.7
2022-08-30T13:24:10.434Z,95686.5
2022-08-30T13:25:13.229Z,95682.7
2022-08-30T13:27:22.280Z,95683.9
2022-08-30T13:28:24.963Z,95681
2022-08-30T13:29:27.955Z,95675.7
2022-08-30T13:30:30.218Z,95677.3
2022-08-30T13:31:34.066Z,95674.3
2022-08-30T13:33:41.619Z,95669.1
2022-08-30T13:34:44.778Z,95671.2
2022-08-30T13:35:46.966Z,95666.3
2022-08-30T13:36:49.087Z,95664.3
2022-08-30T13:37:53.152Z,95669.2
2022-08-30T13:38:58.001Z,95668.2
2022-08-30T13:41:05.876Z,95663.1
2022-08-30T13:43:15.763Z,95665.7
2022-08-30T13:44:18.698Z,95662.1
2022-08-30T13:46:26.489Z,95661.8
2022-08-30T13:48:34.159Z,95663.1
2022-08-30T13:50:43.449Z,95659.3
2022-08-30T13:52:51.587Z,95662.8
2022-08-30T13:53:56.328Z,95658.8
2022-08-30T13:55:00.613Z,95655.4
2022-08-30T13:56:04.423Z,95656
2022-08-30T13:57:08.139Z,95659
2022-08-30T13:59:17.496Z,95656
2022-08-30T14:00:21.057Z,95659.5
2022-08-30T14:01:25.890Z,95655.4
2022-08-30T14:02:28.551Z,95653.3
2022-08-30T14:03:32.055Z,95656.3
2022-08-30T14:04:35.185Z,95653.8
2022-08-30T14:07:49.201Z,95648.8
2022-08-30T14:11:03.241Z,95648.1